sensor_id;sensor_type;location;lat;lon;timestamp;pressure;altitude;pressure_sealevel;temperature;humidity
63399;BME280;49533;-34.520;150.798;2023-03-22T00:01:21;101236.38;;;22.86;57.88
63399;BME280;49533;-34.520;150.798;2023-03-22T00:03:49;101153.28;;;22.32;57.91
63399;BME280;49533;-34.520;150.798;2023-03-22T00:06:18;101229.63;;;22.87;58.00
63399;BME280;49533;-34.520;150.798;2023-03-22T00:08:48;101227.75;;;22.94;57.55
63399;BME280;49533;-34.520;150.798;2023-03-22T00:11:16;101167.16;;;22.63;57.68
63399;BME280;49533;-34.520;150.798;2023-03-22T00:13:43;101196.34;;;22.83;57.85
63399;BME280;49533;-34.520;150.798;2023-03-22T00:16:13;101214.47;;;23.04;57.65
63399;BME280;49533;-34.520;150.798;2023-03-22T00:18:41;101148.25;;;22.68;57.39
63399;BME280;49533;-34.520;150.798;2023-03-22T00:21:11;101146.56;;;22.60;57.82
63399;BME280;49533;-34.520;150.798;2023-03-22T00:23:39;101124.31;;;22.53;57.53
63399;BME280;49533;-34.520;150.798;2023-03-22T00:26:07;101169.91;;;22.89;57.58
63399;BME280;49533;-34.520;150.798;2023-03-22T00:28:35;101152.34;;;22.78;57.74
63399;BME280;49533;-34.520;150.798;2023-03-22T00:31:03;101201.13;;;23.13;58.05
63399;BME280;49533;-34.520;150.798;2023-03-22T00:33:31;101187.25;;;23.13;57.33
63399;BME280;49533;-34.520;150.798;2023-03-22T00:36:02;101207.63;;;23.28;57.52
63399;BME280;49533;-34.520;150.798;2023-03-22T00:38:29;101210.41;;;23.28;57.39
63399;BME280;49533;-34.520;150.798;2023-03-22T00:41:09;101218.03;;;23.04;57.96
63399;BME280;49533;-34.520;150.798;2023-03-22T00:43:37;101200.66;;;23.07;57.11
63399;BME280;49533;-34.520;150.798;2023-03-22T00:46:04;101138.00;;;22.72;57.05
63399;BME280;49533;-34.520;150.798;2023-03-22T00:48:32;101212.25;;;23.16;57.19
63399;BME280;49533;-34.520;150.798;2023-03-22T00:50:59;101177.34;;;23.12;56.68
63399;BME280;49533;-34.520;150.798;2023-03-22T00:53:27;101187.38;;;23.23;56.62
63399;BME280;49533;-34.520;150.798;2023-03-22T00:55:55;101170.63;;;23.13;56.66
63399;BME280;49533;-34.520;150.798;2023-03-22T00:58:22;101185.50;;;23.31;56.54
63399;BME280;49533;-34.520;150.798;2023-03-22T01:00:50;101117.00;;;22.68;57.50
63399;BME280;49533;-34.520;150.798;2023-03-22T01:03:17;101180.47;;;23.07;57.47
63399;BME280;49533;-34.520;150.798;2023-03-22T01:05:44;101198.56;;;23.31;57.36
63399;BME280;49533;-34.520;150.798;2023-03-22T01:08:11;101201.44;;;23.38;57.33
63399;BME280;49533;-34.520;150.798;2023-03-22T01:10:40;101175.22;;;23.32;57.39
63399;BME280;49533;-34.520;150.798;2023-03-22T01:13:08;101095.34;;;22.77;57.54
63399;BME280;49533;-34.520;150.798;2023-03-22T01:15:36;101185.97;;;23.37;57.23
63399;BME280;49533;-34.520;150.798;2023-03-22T01:18:03;101180.03;;;23.38;57.13
63399;BME280;49533;-34.520;150.798;2023-03-22T01:20:31;101155.00;;;23.31;56.99
63399;BME280;49533;-34.520;150.798;2023-03-22T01:22:59;101178.94;;;23.47;57.10
63399;BME280;49533;-34.520;150.798;2023-03-22T01:25:26;101164.19;;;23.39;57.22
63399;BME280;49533;-34.520;150.798;2023-03-22T01:27:54;101103.28;;;23.09;56.83
63399;BME280;49533;-34.520;150.798;2023-03-22T01:30:21;101125.56;;;23.19;57.02
63399;BME280;49533;-34.520;150.798;2023-03-22T01:32:48;101100.78;;;23.00;57.04
63399;BME280;49533;-34.520;150.798;2023-03-22T01:35:15;101115.59;;;23.11;57.28
63399;BME280;49533;-34.520;150.798;2023-03-22T01:37:42;101136.88;;;23.41;57.00
63399;BME280;49533;-34.520;150.798;2023-03-22T01:40:11;101090.78;;;23.26;57.05
63399;BME280;49533;-34.520;150.798;2023-03-22T01:42:39;101138.19;;;23.51;56.95
63399;BME280;49533;-34.520;150.798;2023-03-22T01:45:36;101124.69;;;23.49;57.07
63399;BME280;49533;-34.520;150.798;2023-03-22T01:48:12;101113.00;;;23.29;57.16
63399;BME280;49533;-34.520;150.798;2023-03-22T01:50:43;101117.91;;;23.47;56.91
63399;BME280;49533;-34.520;150.798;2023-03-22T01:53:13;101069.34;;;23.19;56.70
63399;BME280;49533;-34.520;150.798;2023-03-22T01:55:44;101047.84;;;23.09;56.67
63399;BME280;49533;-34.520;150.798;2023-03-22T01:58:14;101112.84;;;23.52;56.96
63399;BME280;49533;-34.520;150.798;2023-03-22T02:00:45;101042.69;;;23.11;57.01
63399;BME280;49533;-34.520;150.798;2023-03-22T02:03:14;101102.16;;;23.54;56.83
63399;BME280;49533;-34.520;150.798;2023-03-22T02:05:47;101065.88;;;23.29;56.67
63399;BME280;49533;-34.520;150.798;2023-03-22T02:08:15;101049.44;;;23.10;56.98
63399;BME280;49533;-34.520;150.798;2023-03-22T02:10:42;101064.03;;;23.44;56.56
63399;BME280;49533;-34.520;150.798;2023-03-22T02:13:28;101038.94;;;23.30;56.95
63399;BME280;49533;-34.520;150.798;2023-03-22T02:16:22;101058.94;;;23.50;57.28
63399;BME280;49533;-34.520;150.798;2023-03-22T02:19:24;100989.94;;;23.00;57.05
63399;BME280;49533;-34.520;150.798;2023-03-22T02:22:15;101052.22;;;23.51;57.11
63399;BME280;49533;-34.520;150.798;2023-03-22T02:25:05;101047.44;;;23.51;56.99
63399;BME280;49533;-34.520;150.798;2023-03-22T02:28:03;101046.28;;;23.52;57.16
63399;BME280;49533;-34.520;150.798;2023-03-22T02:30:58;100985.72;;;23.13;57.30
63399;BME280;49533;-34.520;150.798;2023-03-22T02:33:41;101034.78;;;23.50;57.25
63399;BME280;49533;-34.520;150.798;2023-03-22T02:36:29;101013.75;;;23.49;57.53
63399;BME280;49533;-34.520;150.798;2023-03-22T02:39:20;101020.91;;;23.50;57.89
63399;BME280;49533;-34.520;150.798;2023-03-22T02:42:19;101025.69;;;23.57;57.85
63399;BME280;49533;-34.520;150.798;2023-03-22T02:44:58;100972.78;;;23.28;58.01
63399;BME280;49533;-34.520;150.798;2023-03-22T02:47:40;100999.16;;;23.52;58.38
63399;BME280;49533;-34.520;150.798;2023-03-22T02:50:20;101009.91;;;23.61;58.18
63399;BME280;49533;-34.520;150.798;2023-03-22T02:52:54;101019.41;;;23.60;58.32
63399;BME280;49533;-34.520;150.798;2023-03-22T02:55:30;100960.91;;;23.31;58.14
63399;BME280;49533;-34.520;150.798;2023-03-22T02:58:17;100976.47;;;23.39;58.01
63399;BME280;49533;-34.520;150.798;2023-03-22T03:00:49;100959.41;;;23.37;58.01
63399;BME280;49533;-34.520;150.798;2023-03-22T03:03:20;100962.25;;;23.52;58.03
63399;BME280;49533;-34.520;150.798;2023-03-22T03:05:56;100980.59;;;23.67;58.04
63399;BME280;49533;-34.520;150.798;2023-03-22T03:08:25;100966.72;;;23.63;57.98
63399;BME280;49533;-34.520;150.798;2023-03-22T03:10:54;100965.53;;;23.64;58.30
63399;BME280;49533;-34.520;150.798;2023-03-22T03:13:21;100971.94;;;23.72;58.20
63399;BME280;49533;-34.520;150.798;2023-03-22T03:15:52;100918.25;;;23.47;58.08
63399;BME280;49533;-34.520;150.798;2023-03-22T03:18:46;100915.53;;;23.50;58.08
63399;BME280;49533;-34.520;150.798;2023-03-22T03:21:35;100955.72;;;23.74;57.91
63399;BME280;49533;-34.520;150.798;2023-03-22T03:24:26;100815.13;;;22.75;58.18
63399;BME280;49533;-34.520;150.798;2023-03-22T03:27:03;100963.25;;;23.77;57.97
63399;BME280;49533;-34.520;150.798;2023-03-22T03:29:40;100878.88;;;23.23;58.11
63399;BME280;49533;-34.520;150.798;2023-03-22T03:32:21;100955.75;;;23.78;57.88
63399;BME280;49533;-34.520;150.798;2023-03-22T03:34:56;100964.09;;;23.81;57.80
63399;BME280;49533;-34.520;150.798;2023-03-22T03:37:29;100901.13;;;23.34;57.86
63399;BME280;49533;-34.520;150.798;2023-03-22T03:40:07;100947.81;;;23.73;57.95
63399;BME280;49533;-34.520;150.798;2023-03-22T03:42:39;100963.72;;;23.86;58.17
63399;BME280;49533;-34.520;150.798;2023-03-22T03:45:08;100940.28;;;23.77;58.64
63399;BME280;49533;-34.520;150.798;2023-03-22T03:47:36;100939.47;;;23.73;60.18
63399;BME280;49533;-34.520;150.798;2023-03-22T03:50:04;100948.66;;;23.87;59.80
63399;BME280;49533;-34.520;150.798;2023-03-22T03:52:31;100948.28;;;23.93;59.29
63399;BME280;49533;-34.520;150.798;2023-03-22T03:54:58;100955.44;;;23.94;59.30
63399;BME280;49533;-34.520;150.798;2023-03-22T03:57:26;100953.84;;;23.93;59.29
63399;BME280;49533;-34.520;150.798;2023-03-22T03:59:53;100956.28;;;24.01;59.07
63399;BME280;49533;-34.520;150.798;2023-03-22T04:02:20;100947.56;;;24.03;58.83
63399;BME280;49533;-34.520;150.798;2023-03-22T04:04:47;100949.94;;;24.01;59.00
63399;BME280;49533;-34.520;150.798;2023-03-22T04:07:14;100823.69;;;23.00;59.39
63399;BME280;49533;-34.520;150.798;2023-03-22T04:09:41;100943.63;;;24.04;60.12
63399;BME280;49533;-34.520;150.798;2023-03-22T04:12:08;100932.81;;;25.01;58.93
63399;BME280;49533;-34.520;150.798;2023-03-22T04:17:34;100937.84;;;24.45;57.95
63399;BME280;49533;-34.520;150.798;2023-03-22T04:20:04;100909.91;;;24.05;58.90
63399;BME280;49533;-34.520;150.798;2023-03-22T04:22:32;100914.19;;;23.89;59.46
63399;BME280;49533;-34.520;150.798;2023-03-22T04:28:07;100908.41;;;24.29;58.52
63399;BME280;49533;-34.520;150.798;2023-03-22T04:30:35;100913.56;;;24.31;58.98
63399;BME280;49533;-34.520;150.798;2023-03-22T04:33:04;100798.81;;;23.80;58.13
63399;BME280;49533;-34.520;150.798;2023-03-22T04:35:33;100912.00;;;24.34;58.77
63399;BME280;49533;-34.520;150.798;2023-03-22T04:38:54;100911.47;;;23.96;59.46
63399;BME280;49533;-34.520;150.798;2023-03-22T04:41:21;100917.31;;;23.80;59.68
63399;BME280;49533;-34.520;150.798;2023-03-22T04:43:49;100874.25;;;23.38;60.13
63399;BME280;49533;-34.520;150.798;2023-03-22T04:46:17;100922.28;;;23.56;61.20
63399;BME280;49533;-34.520;150.798;2023-03-22T04:48:46;100918.69;;;23.49;62.79
63399;BME280;49533;-34.520;150.798;2023-03-22T04:51:13;100871.69;;;23.15;63.53
63399;BME280;49533;-34.520;150.798;2023-03-22T04:53:40;100931.81;;;23.55;63.15
63399;BME280;49533;-34.520;150.798;2023-03-22T04:56:10;100889.59;;;23.25;62.69
63399;BME280;49533;-34.520;150.798;2023-03-22T04:58:39;100888.75;;;23.17;62.43
63399;BME280;49533;-34.520;150.798;2023-03-22T05:01:08;100935.72;;;23.51;62.29
63399;BME280;49533;-34.520;150.798;2023-03-22T05:03:36;100931.38;;;23.50;62.77
63399;BME280;49533;-34.520;150.798;2023-03-22T05:06:05;100931.75;;;23.52;63.19
63399;BME280;49533;-34.520;150.798;2023-03-22T05:08:33;100911.06;;;23.38;62.92
63399;BME280;49533;-34.520;150.798;2023-03-22T05:11:06;100914.69;;;23.46;62.68
63399;BME280;49533;-34.520;150.798;2023-03-22T05:13:34;100916.31;;;23.47;63.05
63399;BME280;49533;-34.520;150.798;2023-03-22T05:16:03;100883.25;;;23.24;63.34
63399;BME280;49533;-34.520;150.798;2023-03-22T05:18:31;100847.91;;;23.07;63.10
63399;BME280;49533;-34.520;150.798;2023-03-22T05:20:59;100906.78;;;23.44;63.60
63399;BME280;49533;-34.520;150.798;2023-03-22T05:23:29;100901.19;;;23.41;64.10
63399;BME280;49533;-34.520;150.798;2023-03-22T05:25:56;100862.19;;;23.16;63.89
63399;BME280;49533;-34.520;150.798;2023-03-22T05:28:23;100892.03;;;23.33;63.64
63399;BME280;49533;-34.520;150.798;2023-03-22T05:30:53;100890.81;;;23.27;64.13
63399;BME280;49533;-34.520;150.798;2023-03-22T05:33:20;100843.88;;;23.00;63.74
63399;BME280;49533;-34.520;150.798;2023-03-22T05:35:48;100831.09;;;22.89;63.57
63399;BME280;49533;-34.520;150.798;2023-03-22T05:38:16;100866.09;;;23.08;63.98
63399;BME280;49533;-34.520;150.798;2023-03-22T05:40:44;100822.34;;;22.83;64.06
63399;BME280;49533;-34.520;150.798;2023-03-22T05:43:11;100831.47;;;22.87;64.13
63399;BME280;49533;-34.520;150.798;2023-03-22T05:45:39;100810.72;;;22.67;63.79
63399;BME280;49533;-34.520;150.798;2023-03-22T05:48:06;100889.91;;;23.16;63.74
63399;BME280;49533;-34.520;150.798;2023-03-22T05:50:33;100840.97;;;22.86;63.80
63399;BME280;49533;-34.520;150.798;2023-03-22T05:53:01;100901.84;;;23.23;63.82
63399;BME280;49533;-34.520;150.798;2023-03-22T05:55:29;100898.28;;;23.23;64.19
63399;BME280;49533;-34.520;150.798;2023-03-22T05:57:58;100840.06;;;22.75;64.64
63399;BME280;49533;-34.520;150.798;2023-03-22T06:00:27;100909.72;;;23.18;64.90
63399;BME280;49533;-34.520;150.798;2023-03-22T06:02:58;100853.22;;;22.85;63.91
63399;BME280;49533;-34.520;150.798;2023-03-22T06:05:30;100899.44;;;23.18;65.01
63399;BME280;49533;-34.520;150.798;2023-03-22T06:07:57;100829.47;;;22.81;64.91
63399;BME280;49533;-34.520;150.798;2023-03-22T06:10:24;100880.84;;;23.19;65.28
63399;BME280;49533;-34.520;150.798;2023-03-22T06:12:54;100876.03;;;23.12;65.36
63399;BME280;49533;-34.520;150.798;2023-03-22T06:15:21;100873.97;;;22.98;66.01
63399;BME280;49533;-34.520;150.798;2023-03-22T06:17:48;100874.75;;;23.03;65.66
63399;BME280;49533;-34.520;150.798;2023-03-22T06:20:15;100878.31;;;22.99;65.76
63399;BME280;49533;-34.520;150.798;2023-03-22T06:22:42;100889.41;;;22.99;66.29
63399;BME280;49533;-34.520;150.798;2023-03-22T06:25:10;100881.91;;;23.04;66.42
63399;BME280;49533;-34.520;150.798;2023-03-22T06:27:38;100821.38;;;22.65;66.43
63399;BME280;49533;-34.520;150.798;2023-03-22T06:30:05;100821.81;;;22.67;66.58
63399;BME280;49533;-34.520;150.798;2023-03-22T06:32:32;100879.59;;;23.09;65.87
63399;BME280;49533;-34.520;150.798;2023-03-22T06:35:00;100818.25;;;22.70;66.64
63399;BME280;49533;-34.520;150.798;2023-03-22T06:37:27;100880.38;;;23.10;66.78
63399;BME280;49533;-34.520;150.798;2023-03-22T06:39:54;100884.34;;;23.09;66.50
63399;BME280;49533;-34.520;150.798;2023-03-22T06:42:21;100846.16;;;22.91;66.65
63399;BME280;49533;-34.520;150.798;2023-03-22T06:44:48;100868.50;;;23.13;67.66
63399;BME280;49533;-34.520;150.798;2023-03-22T06:47:15;100872.84;;;23.10;67.24
63399;BME280;49533;-34.520;150.798;2023-03-22T06:49:42;100815.59;;;22.81;67.34
63399;BME280;49533;-34.520;150.798;2023-03-22T06:52:09;100858.97;;;23.07;67.81
63399;BME280;49533;-34.520;150.798;2023-03-22T06:54:36;100832.25;;;22.84;68.06
63399;BME280;49533;-34.520;150.798;2023-03-22T06:57:03;100855.72;;;22.97;67.91
63399;BME280;49533;-34.520;150.798;2023-03-22T06:59:31;100862.91;;;23.02;67.34
63399;BME280;49533;-34.520;150.798;2023-03-22T07:01:58;100810.38;;;22.72;67.15
63399;BME280;49533;-34.520;150.798;2023-03-22T07:04:26;100828.69;;;22.87;67.08
63399;BME280;49533;-34.520;150.798;2023-03-22T07:06:55;100845.47;;;23.02;66.77
63399;BME280;49533;-34.520;150.798;2023-03-22T07:09:22;100857.34;;;23.02;67.56
63399;BME280;49533;-34.520;150.798;2023-03-22T07:11:50;100843.88;;;23.00;66.97
63399;BME280;49533;-34.520;150.798;2023-03-22T07:14:17;100804.75;;;22.65;66.67
63399;BME280;49533;-34.520;150.798;2023-03-22T07:16:44;100831.47;;;22.87;67.51
63399;BME280;49533;-34.520;150.798;2023-03-22T07:19:11;100814.78;;;22.80;66.99
63399;BME280;49533;-34.520;150.798;2023-03-22T07:21:38;100813.22;;;22.79;67.34
63399;BME280;49533;-34.520;150.798;2023-03-22T07:24:05;100763.50;;;22.49;67.55
63399;BME280;49533;-34.520;150.798;2023-03-22T07:26:34;100812.88;;;22.88;67.46
63399;BME280;49533;-34.520;150.798;2023-03-22T07:29:03;100780.25;;;22.67;67.41
63399;BME280;49533;-34.520;150.798;2023-03-22T07:31:30;100826.41;;;22.96;66.63
63399;BME280;49533;-34.520;150.798;2023-03-22T07:34:02;100816.94;;;22.97;66.06
63399;BME280;49533;-34.520;150.798;2023-03-22T07:36:30;100791.41;;;22.74;66.93
63399;BME280;49533;-34.520;150.798;2023-03-22T07:38:58;100797.66;;;22.67;66.52
63399;BME280;49533;-34.520;150.798;2023-03-22T07:41:25;100778.13;;;22.49;66.50
63399;BME280;49533;-34.520;150.798;2023-03-22T07:43:53;100794.44;;;22.58;66.55
63399;BME280;49533;-34.520;150.798;2023-03-22T07:46:21;100821.88;;;22.77;66.62
63399;BME280;49533;-34.520;150.798;2023-03-22T07:48:48;100791.28;;;22.60;67.75
63399;BME280;49533;-34.520;150.798;2023-03-22T07:51:15;100842.09;;;22.78;67.04
63399;BME280;49533;-34.520;150.798;2023-03-22T07:53:42;100822.09;;;22.54;66.92
63399;BME280;49533;-34.520;150.798;2023-03-22T07:56:09;100841.59;;;22.69;67.18
63399;BME280;49533;-34.520;150.798;2023-03-22T07:58:36;100834.78;;;22.59;67.34
63399;BME280;49533;-34.520;150.798;2023-03-22T08:01:06;100857.03;;;22.70;66.69
63399;BME280;49533;-34.520;150.798;2023-03-22T08:03:36;100826.03;;;22.50;66.09
63399;BME280;49533;-34.520;150.798;2023-03-22T08:06:04;100864.59;;;22.73;66.16
63399;BME280;49533;-34.520;150.798;2023-03-22T08:08:34;100867.38;;;22.73;66.48
63399;BME280;49533;-34.520;150.798;2023-03-22T08:11:05;100818.78;;;22.38;66.08
63399;BME280;49533;-34.520;150.798;2023-03-22T08:13:33;100855.72;;;22.56;66.71
63399;BME280;49533;-34.520;150.798;2023-03-22T08:16:00;100864.53;;;22.66;66.19
63399;BME280;49533;-34.520;150.798;2023-03-22T08:18:27;100865.31;;;22.63;65.90
63399;BME280;49533;-34.520;150.798;2023-03-22T08:20:56;100821.91;;;22.36;66.21
63399;BME280;49533;-34.520;150.798;2023-03-22T08:23:25;100870.03;;;22.62;65.91
63399;BME280;49533;-34.520;150.798;2023-03-22T08:25:52;100875.19;;;22.64;66.06
63399;BME280;49533;-34.520;150.798;2023-03-22T08:28:19;100855.63;;;22.46;66.66
63399;BME280;49533;-34.520;150.798;2023-03-22T08:30:47;100873.91;;;22.54;66.30
63399;BME280;49533;-34.520;150.798;2023-03-22T08:33:15;100878.81;;;22.68;66.09
63399;BME280;49533;-34.520;150.798;2023-03-22T08:35:42;100811.72;;;22.10;65.84
63399;BME280;49533;-34.520;150.798;2023-03-22T08:38:10;100876.06;;;22.71;65.67
63399;BME280;49533;-34.520;150.798;2023-03-22T08:40:37;100829.94;;;22.45;65.63
63399;BME280;49533;-34.520;150.798;2023-03-22T08:43:05;100837.81;;;22.47;65.70
63399;BME280;49533;-34.520;150.798;2023-03-22T08:45:32;100871.72;;;22.74;65.33
63399;BME280;49533;-34.520;150.798;2023-03-22T08:47:59;100871.34;;;22.75;65.33
63399;BME280;49533;-34.520;150.798;2023-03-22T08:50:26;100883.59;;;22.74;65.44
63399;BME280;49533;-34.520;150.798;2023-03-22T08:52:53;100872.41;;;22.64;65.12
63399;BME280;49533;-34.520;150.798;2023-03-22T08:55:21;100874.81;;;22.65;65.29
63399;BME280;49533;-34.520;150.798;2023-03-22T08:57:48;100893.09;;;22.73;65.10
63399;BME280;49533;-34.520;150.798;2023-03-22T09:00:17;100855.31;;;22.54;65.31
63399;BME280;49533;-34.520;150.798;2023-03-22T09:02:45;100875.63;;;22.66;64.91
63399;BME280;49533;-34.520;150.798;2023-03-22T09:05:13;100837.38;;;22.41;65.10
63399;BME280;49533;-34.520;150.798;2023-03-22T09:07:41;100893.09;;;22.73;64.78
63399;BME280;49533;-34.520;150.798;2023-03-22T09:10:09;100904.97;;;22.74;65.06
63399;BME280;49533;-34.520;150.798;2023-03-22T09:12:37;100873.97;;;22.57;65.00
63399;BME280;49533;-34.520;150.798;2023-03-22T09:15:05;100892.16;;;22.58;64.74
63399;BME280;49533;-34.520;150.798;2023-03-22T09:17:32;100908.84;;;22.66;64.84
63399;BME280;49533;-34.520;150.798;2023-03-22T09:20:00;100926.34;;;22.73;64.84
63399;BME280;49533;-34.520;150.798;2023-03-22T09:22:27;100887.22;;;22.41;64.75
63399;BME280;49533;-34.520;150.798;2023-03-22T09:24:54;100930.66;;;22.71;64.60
63399;BME280;49533;-34.520;150.798;2023-03-22T09:27:21;100939.34;;;22.69;64.58
63399;BME280;49533;-34.520;150.798;2023-03-22T09:29:48;100856.72;;;22.04;64.44
63399;BME280;49533;-34.520;150.798;2023-03-22T09:32:16;100900.59;;;22.35;64.34
63399;BME280;49533;-34.520;150.798;2023-03-22T09:34:43;100939.66;;;22.61;64.46
63399;BME280;49533;-34.520;150.798;2023-03-22T09:37:10;100877.44;;;22.17;64.48
63399;BME280;49533;-34.520;150.798;2023-03-22T09:39:39;100880.25;;;22.21;64.54
63399;BME280;49533;-34.520;150.798;2023-03-22T09:42:24;100902.94;;;22.33;64.49
63399;BME280;49533;-34.520;150.798;2023-03-22T09:44:55;100884.53;;;22.14;64.17
63399;BME280;49533;-34.520;150.798;2023-03-22T09:47:34;100908.56;;;22.41;64.47
63399;BME280;49533;-34.520;150.798;2023-03-22T09:50:15;100960.69;;;22.69;64.36
63399;BME280;49533;-34.520;150.798;2023-03-22T09:52:45;100958.31;;;22.67;64.47
63399;BME280;49533;-34.520;150.798;2023-03-22T09:55:20;100948.41;;;22.66;64.22
63399;BME280;49533;-34.520;150.798;2023-03-22T09:57:56;100951.19;;;22.66;64.25
63399;BME280;49533;-34.520;150.798;2023-03-22T10:00:38;100908.94;;;22.39;64.60
63399;BME280;49533;-34.520;150.798;2023-03-22T10:03:20;100900.56;;;22.32;64.38
63399;BME280;49533;-34.520;150.798;2023-03-22T10:06:00;100891.44;;;22.28;64.13
63399;BME280;49533;-34.520;150.798;2023-03-22T10:08:58;100958.31;;;22.67;64.21
63399;BME280;49533;-34.520;150.798;2023-03-22T10:11:48;100917.13;;;22.28;64.15
63399;BME280;49533;-34.520;150.798;2023-03-22T10:14:27;100970.94;;;22.65;64.33
63399;BME280;49533;-34.520;150.798;2023-03-22T10:16:59;100909.13;;;22.20;63.94
63399;BME280;49533;-34.520;150.798;2023-03-22T10:19:42;100974.13;;;22.67;63.81
63399;BME280;49533;-34.520;150.798;2023-03-22T10:22:16;100958.97;;;22.57;64.05
63399;BME280;49533;-34.520;150.798;2023-03-22T10:24:45;100960.97;;;22.56;64.23
63399;BME280;49533;-34.520;150.798;2023-03-22T10:27:17;100971.34;;;22.67;64.03
63399;BME280;49533;-34.520;150.798;2023-03-22T10:29:54;100920.44;;;22.41;64.20
63399;BME280;49533;-34.520;150.798;2023-03-22T10:35:13;100979.66;;;22.67;63.69
63399;BME280;49533;-34.520;150.798;2023-03-22T10:37:44;100988.41;;;22.69;63.66
63399;BME280;49533;-34.520;150.798;2023-03-22T10:40:18;100926.75;;;22.38;63.70
63399;BME280;49533;-34.520;150.798;2023-03-22T10:42:55;100907.16;;;22.20;63.61
63399;BME280;49533;-34.520;150.798;2023-03-22T10:45:23;100935.59;;;22.54;63.59
63399;BME280;49533;-34.520;150.798;2023-03-22T10:47:57;100953.59;;;22.68;63.59
63399;BME280;49533;-34.520;150.798;2023-03-22T10:50:32;100935.50;;;22.44;63.38
63399;BME280;49533;-34.520;150.798;2023-03-22T10:53:05;100896.94;;;22.24;63.34
63399;BME280;49533;-34.520;150.798;2023-03-22T10:55:39;100948.25;;;22.52;63.51
63399;BME280;49533;-34.520;150.798;2023-03-22T10:58:13;100928.41;;;22.46;63.37
63399;BME280;49533;-34.520;150.798;2023-03-22T11:00:45;100932.06;;;22.54;63.26
63399;BME280;49533;-34.520;150.798;2023-03-22T11:03:38;100945.97;;;22.61;63.38
63399;BME280;49533;-34.520;150.798;2023-03-22T11:06:14;100961.13;;;22.71;63.00
63399;BME280;49533;-34.520;150.798;2023-03-22T11:08:50;100937.56;;;22.50;63.28
63399;BME280;49533;-34.520;150.798;2023-03-22T11:11:25;100960.69;;;22.69;63.15
63399;BME280;49533;-34.520;150.798;2023-03-22T11:13:59;100974.97;;;22.71;63.00
63399;BME280;49533;-34.520;150.798;2023-03-22T11:16:28;100962.28;;;22.70;62.94
63399;BME280;49533;-34.520;150.798;2023-03-22T11:18:59;100961.50;;;22.69;63.17
63399;BME280;49533;-34.520;150.798;2023-03-22T11:21:31;100879.81;;;22.19;63.09
63399;BME280;49533;-34.520;150.798;2023-03-22T11:24:03;100953.16;;;22.66;63.03
63399;BME280;49533;-34.520;150.798;2023-03-22T11:26:34;100950.75;;;22.64;63.16
63399;BME280;49533;-34.520;150.798;2023-03-22T11:29:15;100940.47;;;22.65;63.12
63399;BME280;49533;-34.520;150.798;2023-03-22T11:31:53;100929.00;;;22.63;63.33
63399;BME280;49533;-34.520;150.798;2023-03-22T11:34:22;100905.91;;;22.51;63.26
63399;BME280;49533;-34.520;150.798;2023-03-22T11:36:50;100850.88;;;22.12;63.08
63399;BME280;49533;-34.520;150.798;2023-03-22T11:39:24;100932.13;;;22.61;63.01
63399;BME280;49533;-34.520;150.798;2023-03-22T11:42:01;100930.91;;;22.58;62.93
63399;BME280;49533;-34.520;150.798;2023-03-22T11:44:33;100858.31;;;22.05;63.03
63399;BME280;49533;-34.520;150.798;2023-03-22T11:47:03;100926.91;;;22.52;62.87
63399;BME280;49533;-34.520;150.798;2023-03-22T11:49:47;100929.25;;;22.50;63.04
63399;BME280;49533;-34.520;150.798;2023-03-22T11:52:22;100927.38;;;22.58;63.06
63399;BME280;49533;-34.520;150.798;2023-03-22T11:54:51;100843.78;;;22.11;62.95
63399;BME280;49533;-34.520;150.798;2023-03-22T11:57:25;100917.44;;;22.57;63.14
63399;BME280;49533;-34.520;150.798;2023-03-22T12:00:03;100912.31;;;22.59;63.04
63399;BME280;49533;-34.520;150.798;2023-03-22T12:02:42;100805.88;;;21.82;62.72
63399;BME280;49533;-34.520;150.798;2023-03-22T12:05:19;100914.53;;;22.43;62.97
63399;BME280;49533;-34.520;150.798;2023-03-22T12:07:52;100830.94;;;21.96;62.74
63399;BME280;49533;-34.520;150.798;2023-03-22T12:10:30;100850.53;;;22.14;62.93
63399;BME280;49533;-34.520;150.798;2023-03-22T12:13:01;100859.66;;;22.18;62.95
63399;BME280;49533;-34.520;150.798;2023-03-22T12:15:34;100883.34;;;22.49;62.91
63399;BME280;49533;-34.520;150.798;2023-03-22T12:18:10;100868.94;;;22.33;62.91
63399;BME280;49533;-34.520;150.798;2023-03-22T12:20:52;100892.31;;;22.39;62.70
63399;BME280;49533;-34.520;150.798;2023-03-22T12:23:23;100886.69;;;22.28;62.86
63399;BME280;49533;-34.520;150.798;2023-03-22T12:26:05;100907.44;;;22.45;63.24
63399;BME280;49533;-34.520;150.798;2023-03-22T12:28:46;100893.09;;;22.36;62.99
63399;BME280;49533;-34.520;150.798;2023-03-22T12:31:29;100909.69;;;22.36;63.09
63399;BME280;49533;-34.520;150.798;2023-03-22T12:34:04;100879.47;;;22.20;62.98
63399;BME280;49533;-34.520;150.798;2023-03-22T12:36:49;100875.59;;;22.25;62.93
63399;BME280;49533;-34.520;150.798;2023-03-22T12:39:24;100915.31;;;22.43;62.98
63399;BME280;49533;-34.520;150.798;2023-03-22T12:41:54;100863.97;;;22.15;62.90
63399;BME280;49533;-34.520;150.798;2023-03-22T12:44:31;100908.22;;;22.42;62.77
63399;BME280;49533;-34.520;150.798;2023-03-22T12:47:05;100894.72;;;22.41;62.95
63399;BME280;49533;-34.520;150.798;2023-03-22T12:49:45;100898.69;;;22.40;63.03
63399;BME280;49533;-34.520;150.798;2023-03-22T12:52:35;100852.81;;;22.08;63.14